Time;durP1;ratioP1;P1;durP2;ratioP2;P2;SDS_P1;SDS_P2;PMS_P1;PMS_P2;Temp;Humidity;BMP_temperature;BMP_pressure;BME280_temperature;BME280_humidity;BME280_pressure;Samples;Min_cycle;Max_cycle;Signal;HPM_P1;HPM_P2
2021/08/31 00:02:01;;;;;;;12.10;9.25;;;16.10;99.90;;;;;;5015636;28;20060;-85
2021/08/31 00:04:31;;;;;;;12.30;9.65;;;16.10;99.90;;;;;;5032746;28;20595;-85
2021/08/31 00:07:03;;;;;;;12.02;8.98;;;16.10;99.90;;;;;;5031893;28;20117;-85
2021/08/31 00:09:30;;;;;;;11.55;8.93;;;16.10;99.90;;;;;;5031683;28;20033;-85
2021/08/31 00:11:56;;;;;;;10.00;8.00;;;16.00;99.90;;;;;;5032426;28;20405;-85
2021/08/31 00:14:26;;;;;;;10.70;8.50;;;16.00;99.90;;;;;;5032346;28;20417;-85
2021/08/31 00:16:53;;;;;;;11.15;8.18;;;16.00;99.90;;;;;;5016113;28;20064;-86
2021/08/31 00:19:20;;;;;;;10.80;8.55;;;15.90;99.90;;;;;;5032644;28;20117;-86
2021/08/31 00:21:47;;;;;;;10.63;9.25;;;15.90;99.90;;;;;;5015893;28;20124;-85
2021/08/31 00:24:14;;;;;;;10.75;8.65;;;15.90;99.90;;;;;;5031638;28;20403;-86
2021/08/31 00:26:40;;;;;;;10.85;8.57;;;15.90;99.90;;;;;;5015911;28;20112;-86
2021/08/31 00:29:07;;;;;;;13.07;9.27;;;15.90;99.90;;;;;;5031816;28;20037;-86
2021/08/31 00:31:35;;;;;;;12.23;8.70;;;15.90;99.90;;;;;;5033676;28;20361;-86
2021/08/31 00:34:02;;;;;;;14.45;9.82;;;15.80;99.90;;;;;;5032373;28;20036;-86
2021/08/31 00:36:28;;;;;;;12.40;8.85;;;15.80;99.90;;;;;;5015856;28;20025;-86
2021/08/31 00:38:57;;;;;;;15.15;9.95;;;15.80;99.90;;;;;;5032280;28;20025;-86
2021/08/31 00:41:25;;;;;;;14.23;10.05;;;15.70;99.90;;;;;;5032055;28;20049;-85
2021/08/31 00:43:52;;;;;;;11.75;9.80;;;15.70;99.90;;;;;;5032053;28;20061;-84
2021/08/31 00:46:21;;;;;;;12.88;10.80;;;15.70;99.90;;;;;;5015453;28;20041;-85
2021/08/31 00:48:50;;;;;;;12.50;10.82;;;15.70;99.90;;;;;;5015630;28;20061;-85
2021/08/31 00:51:22;;;;;;;13.82;10.50;;;15.70;99.90;;;;;;5015482;28;20088;-85
2021/08/31 00:53:50;;;;;;;11.77;9.60;;;15.70;99.90;;;;;;5032148;28;20029;-86
2021/08/31 00:56:18;;;;;;;11.82;9.80;;;15.70;99.90;;;;;;5033222;28;20022;-86
2021/08/31 00:58:46;;;;;;;12.73;10.10;;;15.60;99.90;;;;;;5033388;28;20104;-85
2021/08/31 01:01:12;;;;;;;12.52;9.93;;;15.60;99.90;;;;;;5032025;28;20373;-85
2021/08/31 01:03:46;;;;;;;10.95;9.25;;;15.60;99.90;;;;;;5032005;28;20034;-85
2021/08/31 01:06:11;;;;;;;10.80;8.73;;;15.60;99.90;;;;;;5015672;28;20127;-85
2021/08/31 01:08:38;;;;;;;12.40;9.85;;;15.60;99.90;;;;;;5031898;28;20080;-86
2021/08/31 01:11:05;;;;;;;10.52;8.93;;;15.60;99.90;;;;;;5032665;28;20540;-85
2021/08/31 01:13:33;;;;;;;12.45;9.32;;;15.50;99.90;;;;;;5031900;28;20033;-85
2021/08/31 01:16:00;;;;;;;10.77;9.18;;;15.60;99.90;;;;;;5031728;28;20029;-85
2021/08/31 01:18:27;;;;;;;10.98;9.40;;;15.60;99.90;;;;;;5033440;28;20025;-85
2021/08/31 01:20:55;;;;;;;12.45;8.80;;;15.60;99.90;;;;;;5035293;28;20025;-85
2021/08/31 01:23:25;;;;;;;14.18;10.20;;;15.60;99.90;;;;;;5035522;28;20022;-86
2021/08/31 01:25:54;;;;;;;14.05;11.00;;;15.60;99.90;;;;;;5035427;28;20072;-86
2021/08/31 01:28:26;;;;;;;11.57;9.38;;;15.60;99.90;;;;;;5035461;28;20084;-86
2021/08/31 01:30:52;;;;;;;11.70;9.07;;;15.60;99.90;;;;;;5035299;28;20029;-85
2021/08/31 01:33:20;;;;;;;11.35;8.80;;;15.50;99.90;;;;;;5035166;28;20026;-85
2021/08/31 01:35:46;;;;;;;11.13;8.90;;;15.60;99.90;;;;;;5018761;28;20125;-85
2021/08/31 01:38:13;;;;;;;12.45;9.20;;;15.50;99.90;;;;;;5035370;28;20121;-85
2021/08/31 01:40:39;;;;;;;13.95;9.48;;;15.50;99.90;;;;;;5018208;28;20041;-85
2021/08/31 01:43:04;;;;;;;11.23;9.38;;;15.50;99.90;;;;;;5018808;28;20022;-85
2021/08/31 01:45:47;;;;;;;12.43;9.23;;;15.50;99.90;;;;;;5035144;28;20469;-85
2021/08/31 01:48:13;;;;;;;11.85;9.32;;;15.50;99.90;;;;;;5035125;28;20115;-86
2021/08/31 01:50:40;;;;;;;12.38;9.07;;;15.40;99.90;;;;;;5034978;28;20033;-85
2021/08/31 01:53:06;;;;;;;11.60;8.57;;;15.50;99.90;;;;;;5034941;28;20029;-85
2021/08/31 01:55:35;;;;;;;9.95;8.65;;;15.40;99.90;;;;;;5018560;28;20551;-85
2021/08/31 01:58:01;;;;;;;12.40;9.20;;;15.40;99.90;;;;;;5018436;28;20030;-85
2021/08/31 02:00:27;;;;;;;11.73;9.23;;;15.40;99.90;;;;;;5034664;28;20529;-85
2021/08/31 02:02:53;;;;;;;11.32;9.02;;;15.40;99.90;;;;;;5018223;28;20130;-85
2021/08/31 02:05:20;;;;;;;10.35;9.05;;;15.40;99.90;;;;;;5035818;28;20163;-85
2021/08/31 02:07:46;;;;;;;10.60;8.80;;;15.40;99.90;;;;;;5036284;28;20029;-85
2021/08/31 02:10:12;;;;;;;11.27;8.45;;;15.50;99.90;;;;;;5034166;28;20084;-85
2021/08/31 02:12:38;;;;;;;12.43;8.98;;;15.50;99.90;;;;;;5035353;28;20520;-85
2021/08/31 02:15:05;;;;;;;11.38;8.77;;;15.50;99.90;;;;;;5034379;28;20033;-85
2021/08/31 02:17:32;;;;;;;10.18;8.40;;;15.50;99.90;;;;;;5033976;28;20061;-85
2021/08/31 02:19:57;;;;;;;13.93;9.05;;;15.50;99.90;;;;;;5035758;28;20080;-85
2021/08/31 02:22:23;;;;;;;10.30;7.97;;;15.60;99.90;;;;;;5017840;28;20474;-85
2021/08/31 02:24:49;;;;;;;11.27;8.63;;;15.60;99.90;;;;;;5017820;28;20033;-85
2021/08/31 02:27:15;;;;;;;10.85;8.48;;;15.60;99.90;;;;;;5017841;28;20405;-85
2021/08/31 02:29:42;;;;;;;14.35;9.10;;;15.60;99.90;;;;;;5033717;28;20071;-85
2021/08/31 02:32:08;;;;;;;11.38;9.13;;;15.60;99.90;;;;;;5035393;28;20033;-85
2021/08/31 02:34:34;;;;;;;12.55;8.32;;;15.60;99.90;;;;;;5034209;28;20117;-85
2021/08/31 02:37:02;;;;;;;10.93;8.90;;;15.60;99.90;;;;;;5035365;28;20022;-85
2021/08/31 02:39:28;;;;;;;11.43;7.95;;;15.60;99.90;;;;;;5034976;28;20057;-85
2021/08/31 02:41:57;;;;;;;13.80;9.35;;;15.60;99.90;;;;;;5034012;28;20071;-85
2021/08/31 02:44:22;;;;;;;11.80;8.77;;;15.60;99.90;;;;;;5017550;28;20022;-85
2021/08/31 02:46:48;;;;;;;12.50;8.75;;;15.60;99.90;;;;;;5034636;28;20036;-85
2021/08/31 02:49:14;;;;;;;13.43;9.45;;;15.60;99.90;;;;;;5017358;28;20056;-84
2021/08/31 02:51:42;;;;;;;10.95;8.10;;;15.50;99.90;;;;;;5034866;28;20033;-85
2021/08/31 02:54:09;;;;;;;10.18;7.97;;;15.50;99.90;;;;;;5017369;28;20045;-85
2021/08/31 02:56:36;;;;;;;11.13;8.55;;;15.50;99.90;;;;;;5035058;28;20501;-84
2021/08/31 02:59:02;;;;;;;10.63;7.70;;;15.50;99.90;;;;;;5033774;28;20052;-85
2021/08/31 03:01:34;;;;;;;10.00;8.20;;;15.50;99.90;;;;;;5033478;28;20099;-84
2021/08/31 03:04:01;;;;;;;10.50;7.33;;;15.50;99.90;;;;;;5033702;28;20022;-85
2021/08/31 03:06:28;;;;;;;13.05;8.68;;;15.50;99.90;;;;;;5034517;28;20030;-85
2021/08/31 03:08:55;;;;;;;11.93;9.68;;;15.50;99.90;;;;;;5017273;28;20029;-85
2021/08/31 03:11:21;;;;;;;12.88;8.38;;;15.50;99.90;;;;;;5016428;28;20037;-84
2021/08/31 03:13:47;;;;;;;12.52;8.68;;;15.50;99.90;;;;;;5033389;28;20025;-85
2021/08/31 03:16:13;;;;;;;10.68;8.30;;;15.40;99.90;;;;;;5033128;28;20112;-84
2021/08/31 03:18:40;;;;;;;13.55;8.02;;;15.40;99.90;;;;;;5034289;28;20113;-85
2021/08/31 03:21:06;;;;;;;11.30;7.82;;;15.50;99.90;;;;;;5033257;28;20516;-85
2021/08/31 03:23:33;;;;;;;11.00;8.18;;;15.50;99.90;;;;;;5033048;28;20105;-85
2021/08/31 03:25:59;;;;;;;11.05;7.80;;;15.50;99.90;;;;;;5034399;28;20092;-84
2021/08/31 03:28:26;;;;;;;13.10;7.97;;;15.60;99.90;;;;;;5033026;28;20470;-85
2021/08/31 03:30:52;;;;;;;10.90;7.53;;;15.60;99.90;;;;;;5032916;28;20083;-85
2021/08/31 03:33:18;;;;;;;11.82;7.68;;;15.60;99.90;;;;;;5016721;28;20034;-84
2021/08/31 03:35:45;;;;;;;10.93;7.40;;;15.70;99.90;;;;;;5016587;28;20116;-85
2021/08/31 03:38:12;;;;;;;10.27;7.47;;;15.70;99.90;;;;;;5033009;28;20021;-85
2021/08/31 03:40:38;;;;;;;10.68;7.75;;;15.80;99.90;;;;;;5015795;28;20156;-85
2021/08/31 03:43:04;;;;;;;11.35;7.57;;;15.80;99.90;;;;;;5032938;28;20032;-85
2021/08/31 03:45:30;;;;;;;13.23;8.85;;;15.80;99.90;;;;;;5034482;28;20030;-86
2021/08/31 03:47:57;;;;;;;12.77;8.45;;;15.80;99.90;;;;;;5032916;28;20165;-85
2021/08/31 03:50:23;;;;;;;12.95;7.93;;;15.90;99.90;;;;;;5016257;28;20120;-85
2021/08/31 03:52:49;;;;;;;10.80;8.00;;;15.90;99.90;;;;;;5016455;28;20045;-85
2021/08/31 03:55:17;;;;;;;11.43;8.15;;;15.90;99.90;;;;;;5032988;28;20064;-84
2021/08/31 03:57:43;;;;;;;12.93;8.30;;;15.90;99.90;;;;;;5016461;28;20056;-85
2021/08/31 04:00:10;;;;;;;10.60;7.38;;;15.90;99.90;;;;;;5016255;28;20429;-85
2021/08/31 04:02:41;;;;;;;12.18;7.97;;;15.90;99.90;;;;;;5033892;28;20072;-85
2021/08/31 04:05:10;;;;;;;11.27;7.47;;;16.00;99.90;;;;;;5032958;28;20381;-85
2021/08/31 04:07:37;;;;;;;9.98;6.50;;;16.00;99.90;;;;;;5016767;28;20032;-85
2021/08/31 04:10:03;;;;;;;8.63;5.65;;;16.00;99.90;;;;;;5033366;28;20065;-85
2021/08/31 04:12:30;;;;;;;12.18;6.45;;;16.10;99.90;;;;;;5032304;28;20607;-86
2021/08/31 04:14:57;;;;;;;10.13;5.97;;;16.00;99.90;;;;;;5032716;28;20025;-86
2021/08/31 04:17:23;;;;;;;10.85;6.93;;;16.10;99.90;;;;;;5015745;28;20452;-85
2021/08/31 04:19:50;;;;;;;10.68;6.40;;;16.10;99.90;;;;;;5032831;28;20041;-85
2021/08/31 04:22:17;;;;;;;10.93;6.93;;;16.10;99.90;;;;;;5015797;28;20029;-85
2021/08/31 04:24:49;;;;;;;11.98;6.18;;;16.10;99.90;;;;;;5032671;28;20126;-85
2021/08/31 04:27:15;;;;;;;11.73;6.72;;;16.10;99.90;;;;;;5016430;28;20033;-85
2021/08/31 04:29:42;;;;;;;12.50;6.95;;;16.10;99.90;;;;;;5015832;28;20175;-85
2021/08/31 04:32:08;;;;;;;11.18;6.18;;;16.10;99.90;;;;;;5031985;28;20026;-85
2021/08/31 04:34:34;;;;;;;10.65;6.93;;;16.10;99.90;;;;;;5035136;28;20052;-85
2021/08/31 04:37:01;;;;;;;11.85;7.03;;;16.10;99.90;;;;;;5042890;28;20028;-85
2021/08/31 04:39:27;;;;;;;7.65;5.07;;;16.10;99.90;;;;;;5048679;28;20404;-84
2021/08/31 04:41:54;;;;;;;10.93;6.22;;;16.10;99.90;;;;;;5034222;28;20124;-84
2021/08/31 04:44:19;;;;;;;12.18;6.57;;;16.10;99.90;;;;;;5042381;28;20052;-84
2021/08/31 04:46:45;;;;;;;11.05;6.57;;;16.10;99.90;;;;;;5040521;28;20029;-84
2021/08/31 04:49:11;;;;;;;9.63;5.80;;;16.10;99.90;;;;;;5035007;28;20355;-85
2021/08/31 04:51:37;;;;;;;10.82;5.85;;;16.10;99.90;;;;;;5046130;28;20033;-85
2021/08/31 04:54:03;;;;;;;11.10;5.80;;;16.10;99.90;;;;;;5038403;28;20493;-85
2021/08/31 04:56:29;;;;;;;8.02;5.57;;;16.10;99.90;;;;;;5044615;28;20043;-85
2021/08/31 04:58:56;;;;;;;12.25;6.30;;;16.10;99.90;;;;;;5045977;28;20033;-85
2021/08/31 05:01:34;;;;;;;11.82;5.55;;;16.20;99.90;;;;;;5037349;28;20184;-85
2021/08/31 05:04:02;;;;;;;9.93;5.90;;;16.20;99.90;;;;;;5031579;28;20041;-85
2021/08/31 05:06:30;;;;;;;10.85;5.95;;;16.10;99.90;;;;;;5044600;28;20070;-85
2021/08/31 05:08:56;;;;;;;8.98;5.10;;;16.20;99.90;;;;;;5045859;28;20329;-86
2021/08/31 05:11:22;;;;;;;10.20;5.13;;;16.20;99.90;;;;;;5035843;28;20401;-85
2021/08/31 05:13:49;;;;;;;9.93;5.50;;;16.20;99.90;;;;;;5014329;28;20132;-86
2021/08/31 05:16:25;;;;;;;11.13;5.80;;;16.20;99.90;;;;;;5036639;28;20433;-85
2021/08/31 05:18:53;;;;;;;11.32;5.50;;;16.20;99.90;;;;;;5022568;28;20124;-87
2021/08/31 05:21:29;;;;;;;8.80;5.43;;;16.20;99.90;;;;;;5028538;28;20041;-87
2021/08/31 05:23:58;;;;;;;9.77;5.47;;;16.20;99.90;;;;;;5005351;28;20155;-86
2021/08/31 05:26:27;;;;;;;9.35;4.97;;;16.20;99.90;;;;;;5044462;28;20040;-86
2021/08/31 05:28:53;;;;;;;8.23;4.97;;;16.20;99.90;;;;;;5045209;28;20037;-86
2021/08/31 05:31:22;;;;;;;10.38;5.82;;;16.20;99.90;;;;;;5021171;28;20033;-86
2021/08/31 05:34:01;;;;;;;8.85;5.65;;;16.30;99.90;;;;;;5058105;28;20036;-86
2021/08/31 05:36:31;;;;;;;10.48;6.15;;;16.30;99.90;;;;;;5037901;28;20105;-86
2021/08/31 05:38:58;;;;;;;8.07;4.93;;;16.30;99.90;;;;;;5047293;28;20048;-86
2021/08/31 05:41:26;;;;;;;10.25;4.78;;;16.30;99.90;;;;;;5032720;28;20096;-85
2021/08/31 05:44:02;;;;;;;8.57;5.13;;;16.30;99.90;;;;;;5055838;28;20476;-86
2021/08/31 05:46:31;;;;;;;10.85;5.15;;;16.40;99.90;;;;;;5029344;28;20050;-85
2021/08/31 05:49:02;;;;;;;11.85;5.90;;;16.40;99.90;;;;;;5025892;28;20117;-86
2021/08/31 05:51:31;;;;;;;9.45;5.55;;;16.40;99.90;;;;;;5038919;28;20092;-86
2021/08/31 05:54:01;;;;;;;8.57;4.65;;;16.40;99.90;;;;;;5051477;28;20026;-86
2021/08/31 05:56:30;;;;;;;10.30;5.65;;;16.40;99.90;;;;;;5043158;28;20029;-86
2021/08/31 05:59:05;;;;;;;8.45;4.82;;;16.40;99.90;;;;;;5042469;28;20152;-87
2021/08/31 06:01:46;;;;;;;9.15;4.78;;;16.50;99.90;;;;;;5062970;28;20036;-87
2021/08/31 06:04:15;;;;;;;8.93;4.88;;;16.50;99.90;;;;;;5041501;28;20032;-88
2021/08/31 06:06:49;;;;;;;7.47;4.28;;;16.50;99.90;;;;;;5034847;28;20036;-88
2021/08/31 06:09:22;;;;;;;8.77;4.80;;;16.60;99.90;;;;;;5049318;28;20314;-87
2021/08/31 06:11:54;;;;;;;8.07;4.88;;;16.60;99.90;;;;;;5037659;28;20035;-86
2021/08/31 06:14:23;;;;;;;10.20;5.43;;;16.70;99.90;;;;;;5046377;28;20021;-87
2021/08/31 06:16:53;;;;;;;10.63;5.07;;;16.70;99.90;;;;;;5045347;28;20048;-86
2021/08/31 06:19:35;;;;;;;;;;;;;;;;;;;;;
2021/08/31 06:22:06;;;;;;;10.52;4.60;;;16.70;99.90;;;;;;5025385;28;20020;-87
2021/08/31 06:24:36;;;;;;;11.02;5.32;;;16.80;99.90;;;;;;5028194;28;20034;-87
2021/08/31 06:27:04;;;;;;;9.77;4.90;;;16.90;99.90;;;;;;5047301;28;20029;-87
2021/08/31 06:29:40;;;;;;;10.00;4.90;;;16.90;99.90;;;;;;5038946;28;20057;-87
2021/08/31 06:32:09;;;;;;;7.53;4.38;;;16.90;99.90;;;;;;5048248;28;20041;-86
2021/08/31 06:34:40;;;;;;;8.98;4.72;;;16.90;99.90;;;;;;5042209;28;20082;-86
2021/08/31 06:37:08;;;;;;;10.77;4.90;;;17.00;99.90;;;;;;5018131;28;20030;-87
2021/08/31 06:39:37;;;;;;;9.20;4.78;;;17.00;99.90;;;;;;5050204;28;20029;-85
2021/08/31 06:42:07;;;;;;;9.02;5.10;;;17.00;99.90;;;;;;5038265;28;20059;-84
2021/08/31 06:44:38;;;;;;;8.95;4.75;;;17.00;99.90;;;;;;5044037;28;20033;-84
2021/08/31 06:47:10;;;;;;;12.38;5.50;;;17.10;99.90;;;;;;5046838;28;20045;-84
2021/08/31 06:49:41;;;;;;;10.88;5.97;;;17.10;99.90;;;;;;5036841;28;20028;-85
2021/08/31 06:52:11;;;;;;;11.50;5.20;;;17.10;99.90;;;;;;5048697;28;20029;-84
2021/08/31 06:54:38;;;;;;;8.68;4.78;;;17.10;99.90;;;;;;5043804;28;20025;-85
2021/08/31 06:57:07;;;;;;;8.18;5.10;;;17.10;99.90;;;;;;5046653;28;20447;-87
2021/08/31 06:59:45;;;;;;;7.30;4.97;;;17.10;99.90;;;;;;5020016;28;20120;-86
2021/08/31 07:02:16;;;;;;;7.60;4.30;;;17.10;99.90;;;;;;5046894;28;20026;-86
2021/08/31 07:04:49;;;;;;;9.35;4.63;;;17.20;99.90;;;;;;5042436;28;20337;-84
2021/08/31 07:07:26;;;;;;;6.95;4.53;;;17.20;99.90;;;;;;5017375;28;20116;-85
2021/08/31 07:09:54;;;;;;;9.05;4.80;;;17.30;99.90;;;;;;5020006;28;20033;-85
2021/08/31 07:12:35;;;;;;;9.80;5.47;;;17.40;99.90;;;;;;5028807;28;20026;-88
2021/08/31 07:15:18;;;;;;;10.65;5.90;;;17.50;99.90;;;;;;5042169;28;20531;-85
2021/08/31 07:17:50;;;;;;;7.55;4.60;;;17.60;99.90;;;;;;5020117;28;20026;-85
2021/08/31 07:20:24;;;;;;;8.98;5.40;;;17.60;99.90;;;;;;5029817;28;20099;-87
2021/08/31 07:22:57;;;;;;;8.90;5.18;;;17.70;99.90;;;;;;5044210;28;20374;-86
2021/08/31 07:25:35;;;;;;;11.65;5.45;;;17.70;99.90;;;;;;5037678;28;20036;-86
2021/08/31 07:28:03;;;;;;;7.47;4.57;;;17.70;99.90;;;;;;5049452;28;20117;-86
2021/08/31 07:30:33;;;;;;;8.55;4.72;;;17.70;99.90;;;;;;5041481;28;20389;-86
2021/08/31 07:33:13;;;;;;;7.90;4.13;;;17.70;99.90;;;;;;5017522;28;20053;-86
2021/08/31 07:35:44;;;;;;;7.63;4.40;;;17.80;99.90;;;;;;5042583;28;20076;-86
2021/08/31 07:38:24;;;;;;;6.07;3.80;;;17.90;99.90;;;;;;5055529;28;20033;-86
2021/08/31 07:40:50;;;;;;;8.75;4.82;;;17.90;99.90;;;;;;5040923;28;20127;-86
2021/08/31 07:43:21;;;;;;;7.88;4.85;;;18.00;99.90;;;;;;5047816;28;20060;-86
2021/08/31 07:45:50;;;;;;;7.05;4.18;;;18.00;99.90;;;;;;5035604;28;20035;-87
2021/08/31 07:48:22;;;;;;;9.15;4.10;;;18.00;99.90;;;;;;5045112;28;20080;-86
2021/08/31 07:50:51;;;;;;;6.72;4.28;;;18.00;99.90;;;;;;5044758;28;20036;-86
2021/08/31 07:53:21;;;;;;;11.02;5.00;;;18.10;99.90;;;;;;5037171;28;20037;-87
2021/08/31 07:55:52;;;;;;;10.73;4.43;;;18.20;99.90;;;;;;5046296;28;20028;-86
2021/08/31 07:58:27;;;;;;;10.90;4.88;;;18.30;99.90;;;;;;5028311;28;20138;-85
2021/08/31 08:01:03;;;;;;;9.00;5.25;;;18.50;99.90;;;;;;5044286;28;20033;-86
2021/08/31 08:03:34;;;;;;;7.68;5.00;;;18.70;99.90;;;;;;5015993;28;20437;-87
2021/08/31 08:06:15;;;;;;;6.80;4.20;;;18.90;99.90;;;;;;5025941;28;20128;-87
2021/08/31 08:08:50;;;;;;;7.90;4.80;;;19.00;99.90;;;;;;5055134;28;20068;-87
2021/08/31 08:11:26;;;;;;;11.23;5.47;;;19.10;99.90;;;;;;5019864;28;20601;-87
2021/08/31 08:13:56;;;;;;;8.80;4.75;;;19.20;99.90;;;;;;5019440;28;20029;-87
2021/08/31 08:16:26;;;;;;;8.40;4.70;;;19.20;99.90;;;;;;5023338;28;20048;-87
2021/08/31 08:18:57;;;;;;;7.72;4.68;;;19.20;99.90;;;;;;5060700;28;20537;-87
2021/08/31 08:21:34;;;;;;;8.13;4.30;;;19.30;99.90;;;;;;5019724;28;20025;-87
2021/08/31 08:24:12;;;;;;;7.85;4.40;;;19.30;99.90;;;;;;5021520;28;20389;-87
2021/08/31 08:26:48;;;;;;;11.25;5.32;;;19.20;99.90;;;;;;5032385;28;20041;-87
2021/08/31 08:29:25;;;;;;;6.68;4.35;;;19.20;99.90;;;;;;5021102;28;20473;-87
2021/08/31 08:31:57;;;;;;;6.35;3.97;;;19.30;99.90;;;;;;5048484;28;20116;-87
2021/08/31 08:34:43;;;;;;;7.90;4.18;;;19.40;99.90;;;;;;5039619;28;20031;-86
2021/08/31 08:37:17;;;;;;;10.55;4.68;;;19.50;99.90;;;;;;5033784;28;20469;-86
2021/08/31 08:39:49;;;;;;;9.77;4.30;;;19.60;99.90;;;;;;5034029;28;20040;-87
2021/08/31 08:42:23;;;;;;;8.53;4.70;;;19.60;99.90;;;;;;5055048;28;20115;-86
2021/08/31 08:45:11;;;;;;;7.85;4.57;;;19.50;99.90;;;;;;5024690;28;20037;-87
2021/08/31 08:47:40;;;;;;;10.77;4.40;;;19.50;99.90;;;;;;5047982;28;20043;-86
2021/08/31 08:50:20;;;;;;;7.72;4.40;;;19.50;99.90;;;;;;5038130;28;20052;-86
2021/08/31 08:52:49;;;;;;;9.07;4.45;;;19.50;99.90;;;;;;5041066;28;20029;-86
2021/08/31 08:55:24;;;;;;;6.28;3.55;;;19.60;99.90;;;;;;5044981;28;20025;-86
2021/08/31 08:58:12;;;;;;;6.03;3.83;;;19.70;99.90;;;;;;5047937;28;20029;-86
2021/08/31 09:01:02;;;;;;;7.13;3.70;;;19.80;99.90;;;;;;5041797;28;20502;-86
2021/08/31 09:03:45;;;;;;;8.32;3.92;;;20.00;99.90;;;;;;5035233;28;20093;-86
2021/08/31 09:06:41;;;;;;;6.95;4.18;;;20.20;99.90;;;;;;5047083;28;20032;-86
2021/08/31 09:09:11;;;;;;;10.48;4.72;;;20.30;99.90;;;;;;5037756;28;20036;-86
2021/08/31 09:11:49;;;;;;;6.60;4.35;;;20.30;99.90;;;;;;5048495;28;20041;-86
2021/08/31 09:14:27;;;;;;;6.35;3.63;;;20.40;99.90;;;;;;5038504;28;20025;-85
2021/08/31 09:17:20;;;;;;;8.57;3.70;;;20.50;99.90;;;;;;5037537;28;20018;-86
2021/08/31 09:19:48;;;;;;;8.25;3.83;;;20.70;99.90;;;;;;5031794;28;20041;-87
2021/08/31 09:22:26;;;;;;;8.05;3.83;;;20.80;99.90;;;;;;5054620;28;20477;-86
2021/08/31 09:25:13;;;;;;;6.72;4.13;;;20.80;99.90;;;;;;5040054;28;20488;-87
2021/08/31 09:27:53;;;;;;;6.63;3.33;;;20.90;99.90;;;;;;5047447;28;20112;-86
2021/08/31 09:30:38;;;;;;;6.38;3.53;;;20.90;99.90;;;;;;5038503;28;20559;-86
2021/08/31 09:33:15;;;;;;;5.68;3.30;;;21.00;99.90;;;;;;5039189;28;20025;-86
2021/08/31 09:36:11;;;;;;;7.32;3.60;;;20.90;99.90;;;;;;5044958;28;20109;-86
2021/08/31 09:38:55;;;;;;;5.80;3.40;;;20.80;99.90;;;;;;5034825;28;20021;-87
2021/08/31 09:42:08;;;;;;;5.07;3.30;;;20.80;99.90;;;;;;5038819;28;20021;-87
2021/08/31 09:44:42;;;;;;;6.57;3.47;;;20.90;99.90;;;;;;5046533;28;20564;-87
2021/08/31 09:47:34;;;;;;;5.10;3.53;;;20.90;99.90;;;;;;5050782;28;20044;-87
2021/08/31 09:50:04;;;;;;;6.68;3.83;;;21.80;99.90;;;;;;5023740;28;20048;-88
2021/08/31 09:52:32;;;;;;;7.95;3.60;;;23.30;99.90;;;;;;5029370;28;20063;-87
2021/08/31 09:55:21;;;;;;;5.88;3.53;;;24.40;99.90;;;;;;5047481;28;20033;-87
2021/08/31 09:57:48;;;;;;;7.35;3.65;;;24.90;99.90;;;;;;5034790;28;20037;-88
2021/08/31 10:00:18;;;;;;;7.03;3.65;;;25.40;99.90;;;;;;5029978;28;20037;-88
2021/08/31 10:02:48;;;;;;;7.97;3.63;;;25.80;99.90;;;;;;5040435;28;20083;-87
2021/08/31 10:05:19;;;;;;;5.85;3.22;;;26.60;99.90;;;;;;5048905;28;20083;-88
2021/08/31 10:07:46;;;;;;;5.47;3.08;;;27.10;99.90;;;;;;5033907;28;21113;-88
2021/08/31 10:10:18;;;;;;;6.03;3.38;;;27.20;99.90;;;;;;5030458;28;20037;-89
2021/08/31 10:12:52;;;;;;;6.18;3.45;;;27.70;99.90;;;;;;5041984;28;20034;-89
2021/08/31 10:15:22;;;;;;;5.80;3.28;;;28.00;99.90;;;;;;5038115;28;20032;-89
2021/08/31 10:18:09;;;;;;;7.00;4.15;;;28.50;99.80;;;;;;5035750;28;20017;-88
2021/08/31 10:20:46;;;;;;;5.13;3.17;;;28.10;97.50;;;;;;5024561;28;20056;-89
2021/08/31 10:23:14;;;;;;;6.97;3.22;;;28.10;99.00;;;;;;5025059;28;20036;-89
2021/08/31 10:25:41;;;;;;;6.38;3.53;;;28.60;98.80;;;;;;5048829;28;20407;-89
2021/08/31 10:28:36;;;;;;;6.32;3.50;;;29.40;98.10;;;;;;5032522;28;20036;-89
2021/08/31 10:31:05;;;;;;;6.60;2.97;;;29.70;94.70;;;;;;5039034;28;20039;-89
2021/08/31 10:33:40;;;;;;;7.05;3.25;;;28.50;95.50;;;;;;5035368;28;20030;-89
2021/08/31 10:36:10;;;;;;;7.85;2.80;;;27.50;96.60;;;;;;5046246;28;20037;-89
2021/08/31 10:38:45;;;;;;;4.97;3.05;;;27.70;96.90;;;;;;5031753;28;20060;-89
2021/08/31 10:41:42;;;;;;;6.30;3.30;;;28.10;96.60;;;;;;5046791;28;20028;-89
2021/08/31 10:44:10;;;;;;;6.35;3.22;;;29.10;96.10;;;;;;5025521;28;20028;-89
2021/08/31 10:47:12;;;;;;;4.50;2.80;;;28.70;95.50;;;;;;5041935;28;20087;-88
2021/08/31 10:50:08;;;;;;;4.80;2.90;;;27.80;96.10;;;;;;5033757;28;20057;-89
2021/08/31 10:52:43;;;;;;;6.20;2.80;;;28.30;95.80;;;;;;5029905;28;20041;-88
2021/08/31 10:55:27;;;;;;;5.22;2.70;;;29.10;95.90;;;;;;5048058;28;20026;-89
2021/08/31 10:58:06;;;;;;;5.18;2.83;;;30.20;94.70;;;;;;5036079;28;20396;-90
2021/08/31 11:00:49;;;;;;;4.45;2.63;;;30.90;92.90;;;;;;5044992;28;20489;-89
2021/08/31 11:03:30;;;;;;;5.70;3.30;;;30.60;93.10;;;;;;5040088;28;20511;-89
2021/08/31 11:06:19;;;;;;;5.20;2.83;;;29.50;93.10;;;;;;5022525;28;20038;-89
2021/08/31 11:09:19;;;;;;;5.22;2.78;;;28.60;94.00;;;;;;5043594;28;20060;-90
2021/08/31 11:11:51;;;;;;;4.78;2.85;;;29.10;94.10;;;;;;5036535;28;20045;-90
2021/08/31 11:14:20;;;;;;;6.13;3.00;;;30.10;93.20;;;;;;5045794;28;20102;-89
2021/08/31 11:16:47;;;;;;;6.72;3.60;;;30.60;92.00;;;;;;5035798;28;20025;-90
2021/08/31 11:19:31;;;;;;;4.18;2.70;;;30.00;90.70;;;;;;5017130;28;20029;-89
2021/08/31 11:22:00;;;;;;;5.93;2.88;;;28.90;91.50;;;;;;5037545;28;20033;-90
2021/08/31 11:24:27;;;;;;;5.80;3.00;;;29.00;91.80;;;;;;5044445;28;20032;-89
2021/08/31 11:27:03;;;;;;;4.93;2.97;;;29.70;90.70;;;;;;5034718;28;20092;-89
2021/08/31 11:29:54;;;;;;;7.03;3.58;;;30.20;90.30;;;;;;5032972;28;20205;-90
2021/08/31 11:32:24;;;;;;;6.05;2.75;;;30.60;86.40;;;;;;5031167;28;20496;-89
2021/08/31 11:35:08;;;;;;;5.13;2.70;;;29.30;87.80;;;;;;5035907;28;20029;-89
2021/08/31 11:37:54;;;;;;;6.22;2.85;;;28.20;90.20;;;;;;5064250;28;20369;-89
2021/08/31 11:40:27;;;;;;;4.95;3.00;;;28.50;90.80;;;;;;5047207;28;20032;-89
2021/08/31 11:42:58;;;;;;;4.68;2.67;;;29.50;90.60;;;;;;5032744;28;20057;-89
2021/08/31 11:46:04;;;;;;;5.65;2.70;;;30.30;89.50;;;;;;5035576;28;20543;-89
2021/08/31 11:48:34;;;;;;;4.60;2.53;;;31.30;87.10;;;;;;5035122;28;20040;-88
2021/08/31 11:51:09;;;;;;;3.40;2.22;;;31.70;86.50;;;;;;5040784;28;20124;-89
2021/08/31 11:53:38;;;;;;;5.68;2.70;;;32.30;85.10;;;;;;5049714;28;20052;-89
2021/08/31 11:56:12;;;;;;;6.63;3.00;;;32.10;83.00;;;;;;5032529;28;20482;-88
2021/08/31 11:58:44;;;;;;;5.32;2.70;;;32.20;83.40;;;;;;5032141;28;20129;-88
2021/08/31 12:01:11;;;;;;;4.90;3.00;;;32.70;82.70;;;;;;5014795;28;20037;-89
2021/08/31 12:03:48;;;;;;;4.53;2.90;;;32.40;81.90;;;;;;5040705;28;20033;-88
2021/08/31 12:06:18;;;;;;;6.60;2.90;;;31.80;82.50;;;;;;5039525;28;20063;-88
2021/08/31 12:08:52;;;;;;;5.85;3.10;;;31.80;82.30;;;;;;5041528;28;20492;-88
2021/08/31 12:11:18;;;;;;;4.93;2.70;;;32.10;82.00;;;;;;5030977;28;20037;-89
2021/08/31 12:13:51;;;;;;;4.00;2.35;;;32.50;81.30;;;;;;5032565;28;20021;-89
2021/08/31 12:16:18;;;;;;;5.05;2.70;;;33.00;79.60;;;;;;5039586;28;20029;-88
2021/08/31 12:18:51;;;;;;;4.88;3.00;;;33.30;78.50;;;;;;5022759;28;20107;-88
2021/08/31 12:21:25;;;;;;;4.28;2.60;;;32.90;77.30;;;;;;5032218;28;20060;-88
2021/08/31 12:23:54;;;;;;;5.20;2.73;;;32.20;78.40;;;;;;5012473;28;20032;-87
2021/08/31 12:26:35;;;;;;;4.45;2.67;;;32.30;77.70;;;;;;5020626;28;20029;-88
2021/08/31 12:29:04;;;;;;;5.47;2.35;;;32.70;77.30;;;;;;5031344;28;20064;-88
2021/08/31 12:31:34;;;;;;;7.35;2.55;;;33.00;77.20;;;;;;5049833;28;20465;-88
2021/08/31 12:34:07;;;;;;;6.20;3.08;;;32.40;76.90;;;;;;5033909;28;20124;-88
2021/08/31 12:36:44;;;;;;;6.03;2.90;;;31.30;78.10;;;;;;5041099;28;20013;-89
2021/08/31 12:39:27;;;;;;;5.88;3.30;;;30.80;79.60;;;;;;5036929;28;20386;-89
2021/08/31 12:41:58;;;;;;;;;;;31.20;75.70;;;;;;5020636;28;20429;-89
2021/08/31 12:44:30;;;;;;;4.60;2.72;;;31.30;76.50;;;;;;5019689;28;19906;-90
2021/08/31 12:47:19;;;;;;;5.72;2.80;;;32.20;76.40;;;;;;5019091;28;20039;-89
2021/08/31 12:49:48;;;;;;;6.40;3.25;;;32.50;74.60;;;;;;5030287;28;20057;-90
2021/08/31 12:52:16;;;;;;;4.50;2.53;;;31.50;76.10;;;;;;5025503;28;20058;-89
2021/08/31 12:54:43;;;;;;;5.85;3.15;;;30.30;78.40;;;;;;5020775;28;20072;-90
2021/08/31 12:57:13;;;;;;;5.18;2.97;;;30.10;79.60;;;;;;5040139;28;20031;-89
2021/08/31 12:59:43;;;;;;;9.40;4.07;;;30.50;78.40;;;;;;5033513;28;20470;-90
2021/08/31 13:02:13;;;;;;;7.80;3.90;;;30.60;76.90;;;;;;5037896;28;20400;-89
2021/08/31 13:04:46;;;;;;;5.50;3.42;;;30.80;77.00;;;;;;5043429;28;20052;-88
2021/08/31 13:07:16;;;;;;;5.47;3.28;;;31.10;77.80;;;;;;5021204;28;20034;-89